Terminal Aerodrome Forecast
Issued by NWS Greer, SC

Home | Current Version | Previous Version | Text Only | Print | Product List | Glossary On
Versions: 1 2 3 4 5 6 7 8 9 10 11 12 13 14 15 16 17 18 19 20 21 22 23 24 25 26 27 28 29 30 31 32 33 34 35 36 37 38 39 40 41 42 43 44 45
000
FTUS42 KGSP 182332
TAFAVL
TAF
KAVL 182332Z 1900/1924 20004KT P6SM VCSH BKN060
     FM190300 13003KT P6SM VCSH OVC035
     FM190500 15005KT 6SM BR VCSH OVC020
     FM190700 14006KT 4SM SHRA BR OVC015
     FM191200 15009KT 2SM SHRA BR OVC008
     FM191600 15010G20KT 3SM +SHRA BR OVC007 PROB30 1916/1922 4SM
      TSRA OVC008CB=

USA.gov is the U.S. government's official web portal to all federal, state and local government web resources and services.